Latest Weather Observations for Middle Point

IDD60901

Issued at 8:51 am CST Sunday 30 August 2015 (issued every 10 minutes, with the page automatically refreshed every 10 minutes)

About weather observations | Map of Darwin area stations | Latest observations for Darwin area | Other Formats
Station Details ID: 014041 Name: MIDDLE POINT Lat: -12.61 Lon: 131.30 Height: 14.1 m
Data from the previous 72 hours. | See also: Recent months at Middle Point
Date/Time
CST
Tmp

°C
App
Tmp
°C
Dew
Point
°C
Rel
Hum
%
Delta-T

°C
Wind Press
QNH
hPa
Press
MSL
hPa
Rain
since
9 am
mm
Dir
 
Spd
km/h
Gust
km/h
Spd
kts
Gust
kts
30/08:30am 26.4 29.0 20.0 68 4.2 NE 6 9 3 5 1016.3 1016.2 0.0
30/08:00am 23.8 27.3 20.3 81 2.3 NNE 2 4 1 2 1016.0 1015.9 0.0
30/07:30am 20.2 23.2 18.5 90 1.1 CALM 0 2 0 1 1015.6 1015.5 0.0
30/07:00am 18.3 19.6 16.1 87 1.3 NNE 4 6 2 3 1015.2 1015.1 0.0
30/06:30am 19.0 20.4 16.4 85 1.6 NE 4 4 2 2 1014.8 1014.7 0.0
30/06:00am 19.7 21.6 17.7 88 1.2 ENE 4 6 2 3 1014.6 1014.5 0.0
30/05:30am 19.5 22.1 17.6 89 1.2 CALM 0 0 0 0 1014.5 1014.4 0.0
30/05:00am 19.9 22.3 17.1 84 1.7 CALM 0 0 0 0 1014.4 1014.3 0.0
30/04:30am 20.3 22.8 18.1 87 1.4 NNE 2 4 1 2 1014.3 1014.2 0.0
30/04:00am 21.2 23.1 18.6 85 1.6 NE 6 7 3 4 1014.3 1014.2 0.0
30/03:30am 21.0 23.1 19.3 90 1.1 ENE 7 13 4 7 1014.4 1014.3 0.0
30/03:00am 19.9 21.7 17.5 86 1.5 ENE 4 6 2 3 1014.3 1014.2 0.0
30/02:30am 20.4 23.0 17.6 84 1.7 CALM 0 0 0 0 1014.5 1014.4 0.0
30/02:00am 20.5 23.4 18.1 86 1.5 CALM 0 0 0 0 1014.6 1014.5 0.0
30/01:30am 20.4 23.0 17.6 84 1.7 CALM 0 0 0 0 1014.9 1014.8 0.0
30/01:00am 20.5 23.3 17.9 85 1.6 CALM 0 0 0 0 1015.2 1015.1 0.0
30/12:30am 20.5 23.1 17.5 83 1.8 CALM 0 0 0 0 1015.5 1015.4 0.0
30/12:00am 20.4 22.6 16.6 79 2.3 CALM 0 0 0 0 1015.7 1015.6 0.0
 
Date/Time
CST
Tmp

°C
App
Tmp
°C
Dew
Point
°C
Rel
Hum
%
Delta-T

°C
Wind Press
QNH
hPa
Press
MSL
hPa
Rain
since
9 am
mm
Dir
 
Spd
km/h
Gust
km/h
Spd
kts
Gust
kts
29/11:30pm 21.9 24.0 18.1 79 2.4 ESE 4 6 2 3 1015.5 1015.4 0.0
29/11:00pm 22.4 25.0 18.4 78 2.5 S 2 6 1 3 1015.4 1015.3 0.0
29/10:30pm 21.9 24.3 17.9 78 2.5 WNW 2 2 1 1 1015.4 1015.3 0.0
29/10:00pm 21.9 23.7 17.5 76 2.7 WNW 4 4 2 2 1015.2 1015.1 0.0
29/09:30pm 22.4 24.1 18.0 76 2.7 WNW 6 6 3 3 1014.9 1014.8 0.0
29/09:00pm 23.1 25.0 17.6 71 3.4 NW 4 4 2 2 1014.6 1014.5 0.0
29/08:30pm 24.5 26.7 18.4 69 3.9 NNW 4 6 2 3 1014.4 1014.3 0.0
29/08:00pm 25.3 27.0 18.5 66 4.3 N 7 9 4 5 1014.0 1013.9 0.0
29/07:30pm 26.2 27.3 18.1 61 5.1 N 9 11 5 6 1013.5 1013.4 0.0
29/07:00pm 27.2 27.6 18.2 58 5.7 N 13 19 7 10 1013.2 1013.1 0.0
29/06:30pm 28.3 28.8 17.5 52 6.8 N 11 17 6 9 1012.8 1012.7 0.0
29/06:00pm 29.6 28.8 17.1 47 7.9 N 17 24 9 13 1012.6 1012.5 0.0
29/05:30pm 30.6 29.8 17.0 44 8.6 N 17 20 9 11 1012.3 1012.2 0.0
29/05:00pm 31.1 29.8 16.7 42 9.1 N 19 26 10 14 1012.1 1012.0 0.0
29/04:30pm 32.4 30.9 16.3 38 10.1 NNE 19 26 10 14 1011.7 1011.6 0.0
29/04:00pm 33.1 30.9 16.0 35 10.7 N 22 30 12 16 1011.8 1011.7 0.0
29/03:30pm 33.0 30.0 16.8 38 10.3 NNE 28 35 15 19 1012.1 1012.0 0.0
29/03:00pm 33.1 29.8 16.0 35 10.7 NNE 28 39 15 21 1012.3 1012.2 0.0
29/02:30pm 33.6 32.8 15.1 33 11.5 ENE 13 28 7 15 1012.5 1012.4 0.0
29/02:00pm 33.8 33.2 12.2 27 12.9 E 7 22 4 12 1013.1 1013.0 0.0
29/01:30pm 34.3 31.7 12.0 25 13.3 E 17 24 9 13 1013.9 1013.8 0.0
29/01:00pm 34.5 31.9 13.3 27 12.9 ENE 19 30 10 16 1014.4 1014.3 0.0
29/12:30pm 34.3 31.9 13.7 29 12.6 ESE 19 28 10 15 1014.9 1014.8 0.0
29/12:00pm 33.8 31.8 13.8 30 12.2 E 17 26 9 14 1015.4 1015.3 0.0
29/11:30am 33.0 31.2 15.5 35 10.9 E 19 30 10 16 1016.0 1015.9 0.0
29/11:00am 32.0 31.0 15.5 37 10.2 E 15 24 8 13 1016.5 1016.4 0.0
29/10:30am 30.1 31.2 17.2 46 8.1 NE 7 15 4 8 1016.9 1016.8 0.0
29/10:00am 29.1 30.7 17.9 50 7.1 E 6 11 3 6 1017.2 1017.1 0.0
29/09:30am 28.5 30.9 18.9 56 6.2 SE 4 7 2 4 1017.3 1017.2 0.0
29/09:00am 26.9 29.0 19.0 62 5.1 SSE 6 9 3 5 1017.1 1017.0 0.0
29/08:30am 24.8 27.1 19.4 72 3.5 S 6 6 3 3 1016.7 1016.6 0.0
29/08:00am 22.0 25.3 19.2 84 1.8 CALM 0 2 0 1 1016.5 1016.4 0.0
29/07:30am 19.3 21.4 17.1 87 1.3 S 2 4 1 2 1016.2 1016.1 0.0
29/07:00am 18.3 19.7 16.5 89 1.1 SSW 4 6 2 3 1015.9 1015.8 0.0
29/06:30am 18.6 20.9 16.8 89 1.1 CALM 0 0 0 0 1015.2 1015.1 0.0
29/06:00am 17.4 18.9 15.6 89 1.1 NW 2 2 1 1 1014.8 1014.7 0.0
29/05:30am 17.5 19.0 15.7 89 1.1 NW 2 4 1 2 1014.5 1014.4 0.0
29/05:00am 17.5 19.3 15.5 88 1.2 CALM 0 0 0 0 1014.5 1014.4 0.0
29/04:30am 18.1 19.5 15.5 85 1.5 NNE 2 2 1 1 1014.5 1014.4 0.0
29/04:00am 18.9 20.3 16.3 85 1.6 NNE 4 6 2 3 1014.6 1014.5 0.0
29/03:30am 18.5 19.3 15.9 85 1.5 NE 6 6 3 3 1014.6 1014.5 0.0
29/03:00am 19.3 21.0 16.3 83 1.8 NE 2 4 1 2 1014.9 1014.8 0.0
29/02:30am 19.3 21.4 16.2 82 1.9 CALM 0 4 0 2 1015.1 1015.0 0.0
29/02:00am 19.6 21.6 16.1 80 2.1 CALM 0 0 0 0 1015.2 1015.1 0.0
29/01:30am 20.4 22.3 16.6 79 2.3 WNW 2 6 1 3 1015.2 1015.1 0.0
29/01:00am 20.1 22.3 16.5 80 2.2 CALM 0 0 0 0 1015.3 1015.2 0.0
29/12:30am 20.1 21.7 15.9 77 2.5 SW 2 4 1 2 1015.5 1015.4 0.0
29/12:00am 21.3 23.2 15.8 71 3.3 CALM 0 0 0 0 1015.7 1015.6 0.0
 
Date/Time
CST
Tmp

°C
App
Tmp
°C
Dew
Point
°C
Rel
Hum
%
Delta-T

°C
Wind Press
QNH
hPa
Press
MSL
hPa
Rain
since
9 am
mm
Dir
 
Spd
km/h
Gust
km/h
Spd
kts
Gust
kts
28/11:30pm 22.4 24.9 17.3 73 3.1 CALM 0 0 0 0 1015.6 1015.5 0.0
28/11:00pm 21.4 22.3 16.6 74 2.9 WNW 7 7 4 4 1015.4 1015.3 0.0
28/10:30pm 21.6 22.4 15.9 70 3.4 WNW 6 6 3 3 1015.1 1015.0 0.0
28/10:00pm 21.8 22.7 16.1 70 3.4 W 6 6 3 3 1014.9 1014.8 0.0
28/09:30pm 22.3 23.7 16.3 69 3.6 NW 4 6 2 3 1014.6 1014.5 0.0
28/09:00pm 22.5 23.4 16.1 67 3.9 W 6 6 3 3 1014.4 1014.3 0.0
28/08:30pm 22.9 23.6 15.5 63 4.4 W 6 6 3 3 1014.1 1014.0 0.0
28/08:00pm 24.7 25.4 15.6 57 5.5 WNW 6 7 3 4 1013.7 1013.6 0.0
28/07:30pm 25.6 26.4 15.9 55 5.9 NW 6 7 3 4 1013.1 1013.0 0.0
28/07:00pm 27.5 27.0 15.8 48 7.2 NNE 13 17 7 9 1012.5 1012.4 0.0
28/06:30pm 28.5 28.3 14.7 43 8.4 N 9 15 5 8 1012.1 1012.0 0.0
28/06:00pm 30.3 28.5 14.4 38 9.7 NNE 17 24 9 13 1011.6 1011.5 0.0
28/05:30pm 31.1 28.8 14.7 37 10.0 NNE 20 28 11 15 1011.4 1011.3 0.0
28/05:00pm 31.8 29.0 14.4 34 10.6 N 22 30 12 16 1011.3 1011.2 0.0
28/04:30pm 32.8 29.8 14.9 34 11.1 NNE 24 32 13 17 1011.2 1011.1 0.0
28/04:00pm 33.5 31.3 15.0 32 11.5 N 20 32 11 17 1011.3 1011.2 0.0
28/03:30pm 33.5 30.6 15.0 32 11.5 N 24 32 13 17 1011.2 1011.1 0.0
28/03:00pm 35.1 32.9 13.3 27 13.3 NNE 17 24 9 13 1011.5 1011.4 0.0
28/02:30pm 35.3 32.6 11.7 24 14.0 E 17 26 9 14 1012.1 1012.0 0.0
28/02:00pm 33.3 31.6 11.2 26 12.9 ESE 11 26 6 14 1012.6 1012.5 0.0
28/01:30pm 35.2 32.7 12.2 25 13.8 NE 17 32 9 17 1013.1 1013.0 0.0
28/01:00pm 33.8 32.0 13.3 29 12.4 ENE 15 26 8 14 1013.7 1013.6 0.0
28/12:30pm 33.6 32.2 14.6 31 11.7 ESE 15 28 8 15 1014.3 1014.2 0.0
28/12:00pm 32.4 30.2 14.5 33 11.0 ESE 19 32 10 17 1015.1 1015.0 0.0
28/11:30am 32.7 29.8 15.2 34 10.8 E 24 33 13 18 1015.7 1015.6 0.0
28/11:00am 32.3 31.4 17.7 41 9.4 E 19 28 10 15 1016.2 1016.1 0.0
28/10:30am 30.7 30.7 18.1 47 8.1 ESE 15 24 8 13 1016.6 1016.5 0.0
28/10:00am 29.5 31.7 19.5 55 6.5 E 7 13 4 7 1016.9 1016.8 0.0
28/09:30am 27.8 30.0 19.6 61 5.3 ENE 7 15 4 8 1016.9 1016.8 0.0
28/09:00am 26.7 29.1 20.1 67 4.3 ENE 7 13 4 7 1016.7 1016.6 0.0
28/08:30am 25.6 28.8 20.4 73 3.4 SE 4 6 2 3 1016.7 1016.6 0.0
28/08:00am 22.9 27.1 21.0 89 1.2 CALM 0 0 0 0 1016.3 1016.2 0.0
28/07:30am 19.4 22.1 17.7 90 1.0 CALM 0 0 0 0 1015.8 1015.7 0.0
28/07:00am 18.6 21.0 16.9 90 1.0 CALM 0 0 0 0 1015.7 1015.6 0.0
28/06:30am 18.8 21.2 16.9 89 1.1 CALM 0 0 0 0 1015.3 1015.2 0.0
28/06:00am 18.8 21.3 17.3 91 0.9 CALM 0 0 0 0 1014.9 1014.8 0.0
28/05:30am 18.6 20.8 16.6 88 1.2 CALM 0 0 0 0 1014.7 1014.6 0.0
28/05:00am 20.0 22.9 18.1 89 1.2 CALM 0 0 0 0 1014.7 1014.6 0.0
28/04:30am 20.2 23.2 18.5 90 1.1 CALM 0 0 0 0 1014.7 1014.6 0.0
28/04:00am 20.4 23.2 18.0 86 1.5 CALM 0 0 0 0 1014.6 1014.5 0.0
28/03:30am 21.1 24.0 18.3 84 1.7 CALM 0 0 0 0 1014.7 1014.6 0.0
28/03:00am 22.3 25.5 19.8 86 1.6 ENE 2 2 1 1 1015.0 1014.9 0.0
28/02:30am 21.8 24.5 19.5 87 1.5 ENE 4 6 2 3 1015.0 1014.9 0.0
28/02:00am 21.1 24.1 19.2 89 1.2 NNW 2 2 1 1 1015.1 1015.0 0.0
28/01:30am 20.9 23.1 18.3 85 1.6 NNW 4 6 2 3 1015.1 1015.0 0.0
28/01:00am 20.9 22.4 17.7 82 2.0 NNW 6 6 3 3 1015.3 1015.2 0.0
28/12:30am 21.5 23.9 18.7 84 1.8 N 4 6 2 3 1015.5 1015.4 0.0
28/12:00am 21.1 22.7 18.3 84 1.7 NNE 7 7 4 4 1015.7 1015.6 0.0
 
Date/Time
CST
Tmp

°C
App
Tmp
°C
Dew
Point
°C
Rel
Hum
%
Delta-T

°C
Wind Press
QNH
hPa
Press
MSL
hPa
Rain
since
9 am
mm
Dir
 
Spd
km/h
Gust
km/h
Spd
kts
Gust
kts
27/11:30pm 21.1 22.7 17.9 82 2.0 NNE 6 7 3 4 1015.5 1015.4 0.0
27/11:00pm 20.8 22.7 17.6 82 2.0 NNE 4 6 2 3 1015.5 1015.4 0.0
27/10:30pm 21.8 24.6 18.0 79 2.4 CALM 0 0 0 0 1015.4 1015.3 0.0
27/10:00pm 22.0 24.7 17.8 77 2.6 CALM 0 0 0 0 1015.3 1015.2 0.0
27/09:30pm 22.1 25.0 18.1 78 2.5 CALM 0 0 0 0 1015.0 1014.9 0.0
27/09:00pm 22.6 24.6 17.9 75 2.9 W 4 6 2 3 1014.6 1014.5 0.0
27/08:30pm 24.1 26.0 19.0 73 3.2 N 7 9 4 5 1014.1 1014.0 0.0
27/08:00pm 24.5 26.2 18.4 69 3.9 NNE 7 9 4 5 1013.9 1013.8 0.0
27/07:30pm 25.9 27.3 18.6 64 4.6 N 9 13 5 7 1013.6 1013.5 0.0
27/07:00pm 26.8 27.6 18.1 59 5.5 N 11 15 6 8 1013.2 1013.1 0.0
27/06:30pm 27.9 28.0 17.4 52 6.6 N 13 17 7 9 1012.7 1012.6 0.0
27/06:00pm 29.1 28.4 17.3 49 7.5 N 17 26 9 14 1012.2 1012.1 0.0
27/05:30pm 30.3 29.2 17.4 46 8.2 N 19 28 10 15 1011.7 1011.6 0.0
27/05:00pm 31.2 29.8 17.1 42 8.9 N 20 28 11 15 1011.4 1011.3 0.0
27/04:30pm 32.1 30.8 16.8 40 9.7 N 19 24 10 13 1011.4 1011.3 0.0
27/04:00pm 32.5 31.6 16.8 39 9.9 N 17 26 9 14 1011.5 1011.4 0.0
27/03:30pm 32.6 31.1 16.8 38 10.0 N 20 30 11 16 1011.6 1011.5 0.0
27/03:00pm 34.2 34.2 15.1 31 11.9 ENE 9 20 5 11 1011.8 1011.7 0.0
27/02:30pm 33.6 33.0 14.6 31 11.7 ESE 11 19 6 10 1012.3 1012.2 0.0
27/02:00pm 32.9 33.1 15.8 35 10.7 E 9 15 5 8 1012.8 1012.7 0.0
27/01:30pm 32.5 32.5 16.3 37 10.2 NE 11 22 6 12 1013.5 1013.4 0.0
27/01:00pm 31.3 31.4 16.5 41 9.3 ENE 11 20 6 11 1014.1 1014.0 0.0
27/12:30pm 31.5 31.2 17.4 43 9.0 NE 15 24 8 13 1014.6 1014.5 0.0
27/12:00pm 31.0 30.5 17.0 43 8.8 NE 15 26 8 14 1015.1 1015.0 0.0
27/11:30am 30.3 31.3 18.7 50 7.5 NE 11 20 6 11 1015.8 1015.7 0.0
27/11:00am 29.6 30.1 18.4 51 7.2 NE 13 20 7 11 1016.2 1016.1 0.0
27/10:30am 29.2 31.3 20.1 58 6.0 NNE 9 17 5 9 1016.5 1016.4 0.0
27/10:00am 27.8 30.4 20.4 64 4.9 E 7 13 4 7 1016.7 1016.6 0.0
27/09:30am 26.3 28.8 20.2 69 4.0 SE 7 13 4 7 1016.6 1016.5 0.0
27/09:00am 25.9 28.7 20.9 74 3.3 ESE 7 9 4 5 1016.3 1016.2 0.0

Latest Capital City Observations: Canberra | Sydney | Melbourne | Brisbane | Adelaide | Perth | Hobart | Darwin

Other Formats:

Comma delimited format used in spreadsheet applications
http://www.bom.gov.au/fwo/IDD60901/IDD60901.95121.axf

JavaScript Object Notation format (JSON) in row-major order
http://www.bom.gov.au/fwo/IDD60901/IDD60901.95121.json